Piper Inness — WDC3984 — position and weather

sailwx.info

Track history (hours):
 
Tides and Currents Weather Stations Pressure Air Temp Water Temp Dewpoint Dewpoint Depression Visibility Wind Speed Wind Dir Waves Ship Positions

Piper Inness

Owner: Foss Maritime Co, Seattle, WA. More information available from US FCC via Universal Licensing System and Coast Guard Vessel Documentation Center.

Last reported at 2014-Nov-26 09:30 UTC. Time now 2014-Nov-26 10:03 UTC.
Position N 33°46' W 118°13'.

; draft 2 m.

Type: Other ship. MMSI: 367017440.

Date/timePositionNaut miles runAvg speedWind from/ knotsBaromVisibWave heightAir tempDewpointWater temp
2014-Nov-26 09:30N 33°46' W 118°13'0 0.0
2014-Nov-26 08:33N 33°46' W 118°13'0 0.0
2014-Nov-26 07:31N 33°46' W 118°13'0 0.0
2014-Nov-26 06:30N 33°46' W 118°13'0 0.0
2014-Nov-26 05:33N 33°46' W 118°13'0 0.0
2014-Nov-26 04:33N 33°46' W 118°13'0 0.0
2014-Nov-26 03:22N 33°46' W 118°13'0 0.0
2014-Nov-26 02:33N 33°46' W 118°13'0 0.0
2014-Nov-26 01:33N 33°46' W 118°13'0 0.0
2014-Nov-26 00:33N 33°46' W 118°13'0 0.0
2014-Nov-25 23:33N 33°46' W 118°13'0 0.0
2014-Nov-25 22:33N 33°46' W 118°13'0 0.0
2014-Nov-25 21:33N 33°46' W 118°13'0 0.0
2014-Nov-25 20:33N 33°46' W 118°13'0 0.0
2014-Nov-25 19:33N 33°46' W 118°13'0 0.0
2014-Nov-25 18:33N 33°46' W 118°13'0 0.0
2014-Nov-25 17:33N 33°46' W 118°13'0 0.0
2014-Nov-25 16:33N 33°46' W 118°13'0 0.0
2014-Nov-25 15:33N 33°46' W 118°13'0 0.0
2014-Nov-25 14:33N 33°46' W 118°13'0 0.0
2014-Nov-25 13:33N 33°46' W 118°13'0 0.0
2014-Nov-25 12:33N 33°46' W 118°13'0 0.0
2014-Nov-25 11:33N 33°46' W 118°13'0 0.0
2014-Nov-25 10:33N 33°46' W 118°13'0 0.0
2014-Nov-25 09:33N 33°46' W 118°13'0 0.0
2014-Nov-25 08:33N 33°46' W 118°13'0 0.0
2014-Nov-25 07:33N 33°46' W 118°13'0 0.0
2014-Nov-25 06:33N 33°46' W 118°13'0 0.0
2014-Nov-25 05:33N 33°46' W 118°13'0 0.0
2014-Nov-25 04:33N 33°46' W 118°13'0 0.0
2014-Nov-25 03:33N 33°46' W 118°13'0 0.0
2014-Nov-25 02:33N 33°46' W 118°13'0 0.0
2014-Nov-25 01:33N 33°46' W 118°13'0 0.0
2014-Nov-25 00:33N 33°46' W 118°13'0 0.0
2014-Nov-24 23:33N 33°46' W 118°13'0 0.0
2014-Nov-24 22:33N 33°46' W 118°13'0 0.0
2014-Nov-24 21:33N 33°46' W 118°13'0 0.0
2014-Nov-24 20:33N 33°46' W 118°13'0 0.0
2014-Nov-24 19:33N 33°46' W 118°13'0 0.0
2014-Nov-24 18:33N 33°46' W 118°13'0 0.0
2014-Nov-24 17:33N 33°46' W 118°13'0 0.0
2014-Nov-24 16:33N 33°46' W 118°13'0 0.0
2014-Nov-24 15:30N 33°46' W 118°13'0 0.0
2014-Nov-24 14:33N 33°46' W 118°13'0 0.0
2014-Nov-24 13:32N 33°46' W 118°13'0 0.0
2014-Nov-24 12:33N 33°46' W 118°13'0 0.0
2014-Nov-24 11:32N 33°46' W 118°13'0 0.0
2014-Nov-24 10:33N 33°46' W 118°13'0 0.0
2014-Nov-24 09:29N 33°46' W 118°13'0 0.0
2014-Nov-24 08:33N 33°46' W 118°13'0 0.0
2014-Nov-24 07:33N 33°46' W 118°13'0 0.0
2014-Nov-24 06:33N 33°46' W 118°13'0 0.0
2014-Nov-24 05:33N 33°46' W 118°13'0 0.0
2014-Nov-24 04:33N 33°46' W 118°13'0 0.0
2014-Nov-24 03:33N 33°46' W 118°13'2311.3
2014-Nov-24 01:33N 33°25' W 118°02'1817.8
2014-Nov-24 00:33N 33°10' W 117°52'4 3.7
2014-Nov-23 23:33N 33°06' W 117°51'0 0.3
2014-Nov-23 22:33N 33°06' W 117°51'3 2.6
2014-Nov-23 21:34N 33°04' W 117°49'1 0.8
2014-Nov-23 20:33N 33°03' W 117°49'3 2.9
2014-Nov-23 19:33N 33°01' W 117°46'1 0.6
2014-Nov-23 18:33N 33°01' W 117°46'2 2.4
2014-Nov-23 17:33N 32°60' W 117°43'3 2.8
2014-Nov-23 16:33N 33°00' W 117°47'2 2.2
2014-Nov-23 15:34N 33°00' W 117°44'3 2.9
2014-Nov-23 14:33N 33°01' W 117°47'0 0.3
2014-Nov-23 13:33N 33°01' W 117°47'1 0.9
2014-Nov-23 12:33N 33°00' W 117°46'1 1.4
2014-Nov-23 11:33N 33°00' W 117°48'0 0.5
2014-Nov-23 10:33N 33°01' W 117°48'2 2.0
2014-Nov-23 09:33N 33°01' W 117°50'2 2.0
2014-Nov-23 08:33N 33°01' W 117°48'2 1.6
2014-Nov-23 07:33N 33°01' W 117°50'1 0.8
2014-Nov-23 06:33N 33°01' W 117°49'5 5.0
2014-Nov-23 05:33N 33°05' W 117°53'4 4.0
2014-Nov-23 04:33N 33°08' W 117°55'4 4.0
2014-Nov-23 03:33N 33°11' W 117°59'9 8.9
2014-Nov-23 02:33N 33°20' W 118°01'1717.2
2014-Nov-23 01:34N 33°36' W 118°07'1111.0
2014-Nov-23 00:33N 33°46' W 118°13'1 0.6
2014-Nov-22 23:33N 33°46' W 118°13'0 0.0
2014-Nov-22 22:33N 33°46' W 118°13'0 0.0
2014-Nov-22 21:16N 33°46' W 118°13'0 0.0
2014-Nov-22 20:33N 33°46' W 118°13'0 0.0
2014-Nov-22 19:33N 33°46' W 118°13'0 0.0
2014-Nov-22 18:33N 33°46' W 118°13'0 0.0
2014-Nov-22 17:33N 33°46' W 118°13'0 0.0
2014-Nov-22 16:33N 33°46' W 118°13'0 0.0
2014-Nov-22 15:33N 33°46' W 118°13'0 0.0
2014-Nov-22 14:33N 33°46' W 118°13'3 2.4
2014-Nov-22 13:30N 33°44' W 118°12'3317.0
2014-Nov-22 11:34N 33°14' W 117°56'9 8.5
2014-Nov-22 10:33N 33°06' W 117°51'2 1.5
2014-Nov-22 09:33N 33°05' W 117°53'1 0.9
2014-Nov-22 08:33N 33°04' W 117°52'1 1.3
2014-Nov-22 07:33N 33°03' W 117°51'2 2.0
2014-Nov-22 06:34N 33°03' W 117°49'2 1.7
2014-Nov-22 05:34N 33°01' W 117°51'3 2.9
2014-Nov-22 04:34N 33°00' W 117°48'3 2.8
2014-Nov-22 03:34N 33°00' W 117°51'1 1.4
2014-Nov-22 02:34N 32°59' W 117°50'4 3.6
2014-Nov-22 01:33N 32°58' W 117°46'2 1.7
2014-Nov-22 00:33N 32°57' W 117°44'1 0.6
2014-Nov-21 23:34N 32°57' W 117°43'1 0.9
2014-Nov-21 22:34N 32°57' W 117°44'1 1.3
2014-Nov-21 21:34N 32°58' W 117°45'1 0.6
2014-Nov-21 20:34N 32°58' W 117°46'2 2.1
2014-Nov-21 19:33N 32°58' W 117°44'2 2.3
2014-Nov-21 18:33N 32°59' W 117°46'4 3.6
2014-Nov-21 17:33N 33°01' W 117°49'5 5.0
2014-Nov-21 16:33N 33°05' W 117°53'5 4.5
2014-Nov-21 15:34N 33°08' W 117°56'4 3.6
2014-Nov-21 14:33N 33°11' W 117°60'4 4.1
2014-Nov-21 13:33N 33°09' W 117°55'7 6.9
2014-Nov-21 12:33N 33°16' W 117°58'3215.8
2014-Nov-21 10:33N 33°45' W 118°13'1 1.4
2014-Nov-21 09:33N 33°46' W 118°13'0 0.0
2014-Nov-21 08:33N 33°46' W 118°13'0 0.0
2014-Nov-21 07:34N 33°46' W 118°13'0 0.0
2014-Nov-21 06:33N 33°46' W 118°13'0 0.0
2014-Nov-21 05:33N 33°46' W 118°13'0 0.0
2014-Nov-21 04:33N 33°46' W 118°13'0 0.0
2014-Nov-21 03:33N 33°46' W 118°13'0 0.0
2014-Nov-21 02:33N 33°46' W 118°13'0 0.0
2014-Nov-21 01:33N 33°46' W 118°13'0 0.0
2014-Nov-21 00:33N 33°46' W 118°13'0 0.0
2014-Nov-20 23:33N 33°46' W 118°13'0 0.0
2014-Nov-20 22:33N 33°46' W 118°13'0 0.0
2014-Nov-20 21:33N 33°46' W 118°13'0 0.0
2014-Nov-20 20:33N 33°46' W 118°13'0 0.0
2014-Nov-20 19:33N 33°46' W 118°13'0 0.0
2014-Nov-20 18:33N 33°46' W 118°13'0 0.0
2014-Nov-20 17:33N 33°46' W 118°13'0 0.0
2014-Nov-20 16:33N 33°46' W 118°13'0 0.0
2014-Nov-20 15:33N 33°46' W 118°13'0 0.0
2014-Nov-20 14:33N 33°46' W 118°13'0 0.0
2014-Nov-20 13:33N 33°46' W 118°13'0 0.0
2014-Nov-20 12:33N 33°46' W 118°13'0 0.0
2014-Nov-20 11:33N 33°46' W 118°13'0 0.0
2014-Nov-20 10:33N 33°46' W 118°13'0 0.0
2014-Nov-20 09:33N 33°46' W 118°13'0 0.0
2014-Nov-20 08:33N 33°46' W 118°13'0 0.0
2014-Nov-20 07:33N 33°46' W 118°13'0 0.0
2014-Nov-20 06:33N 33°46' W 118°13'0 0.0
2014-Nov-20 05:33N 33°46' W 118°13'0 0.0
2014-Nov-20 04:33N 33°46' W 118°13'0 0.0
2014-Nov-20 03:33N 33°46' W 118°13'0 0.0
2014-Nov-20 02:33N 33°46' W 118°13'0 0.0
2014-Nov-20 01:33N 33°46' W 118°13'0 0.0
2014-Nov-20 00:33N 33°46' W 118°13'0 0.0
2014-Nov-19 23:33N 33°46' W 118°13'0 0.0
2014-Nov-19 22:33N 33°46' W 118°13'0 0.0
2014-Nov-19 21:33N 33°46' W 118°13'0 0.0
2014-Nov-19 20:33N 33°46' W 118°13'0 0.0
2014-Nov-19 19:33N 33°46' W 118°13'0 0.0
2014-Nov-19 18:33N 33°46' W 118°13'1 0.7
2014-Nov-19 17:33N 33°46' W 118°13'1 0.7
2014-Nov-19 16:33N 33°46' W 118°13'0 0.0
2014-Nov-19 15:33N 33°46' W 118°13'0 0.0
2014-Nov-19 14:33N 33°46' W 118°13'0 0.0
2014-Nov-19 13:32N 33°46' W 118°13'0 0.0
2014-Nov-19 12:29N 33°46' W 118°13'0 0.0
2014-Nov-19 11:33N 33°46' W 118°13'0 0.0
2014-Nov-19 10:33N 33°46' W 118°13'0 0.0
2014-Nov-19 09:33N 33°46' W 118°13'0 0.5
2014-Nov-19 08:33N 33°46' W 118°13'1413.9
2014-Nov-19 07:33N 33°34' W 118°05'1717.5
2014-Nov-19 06:33N 33°19' W 117°55'7 7.3
2014-Nov-19 05:33N 33°12' W 117°51'6 5.8
2014-Nov-19 04:33N 33°06' W 117°51'1 0.7
2014-Nov-19 03:34N 33°06' W 117°50'3 3.0
2014-Nov-19 02:34N 33°03' W 117°50'1 0.8
2014-Nov-19 01:34N 33°02' W 117°50'3 3.0
2014-Nov-19 00:34N 32°60' W 117°48'0 0.2
2014-Nov-18 23:34N 32°60' W 117°48'3 3.2
2014-Nov-18 22:33N 32°58' W 117°45'3 2.6
2014-Nov-18 21:34N 32°57' W 117°42'1 1.0
2014-Nov-18 20:33N 32°57' W 117°43'2 2.2
2014-Nov-18 19:34N 32°56' W 117°46'1 0.9
2014-Nov-18 18:33N 32°57' W 117°46'1 1.4
2014-Nov-18 17:34N 32°58' W 117°48'0 0.3
2014-Nov-18 16:34N 32°58' W 117°48'0 0.3
2014-Nov-18 15:33N 32°57' W 117°47'0 0.4
2014-Nov-18 14:33N 32°58' W 117°48'0 0.2
2014-Nov-18 13:34N 32°58' W 117°48'0 0.3
2014-Nov-18 12:33N 32°58' W 117°48'1 0.7
2014-Nov-18 11:33N 32°58' W 117°48'4 3.7
2014-Nov-18 10:34N 33°01' W 117°51'4 3.9
2014-Nov-18 09:33N 33°04' W 117°53'4 3.8
2014-Nov-18 08:33N 33°08' W 117°56'4 4.4
2014-Nov-18 07:34N 33°11' W 117°59'1716.9
2014-Nov-18 06:33N 33°28' W 118°03'1717.1
2014-Nov-18 05:33N 33°44' W 118°11'3 3.0
2014-Nov-18 04:33N 33°46' W 118°13'0 0.0
2014-Nov-18 03:31N 33°46' W 118°13'0 0.0
2014-Nov-18 02:32N 33°46' W 118°13'0 0.0
2014-Nov-18 01:20N 33°46' W 118°13'0 0.0
2014-Nov-17 20:12N 33°46' W 118°13'4 6.2
2014-Nov-17 19:33N 33°43' W 118°16'9 0.4
2014-Nov-16 19:28N 33°37' W 118°08'1817.8
2014-Nov-16 18:27N 33°20' W 117°59'1516.8
2014-Nov-16 17:33N 33°07' W 117°52'1 0.8
2014-Nov-16 16:32N 33°06' W 117°52'1 1.1
2014-Nov-16 15:33N 33°05' W 117°53'1 0.5
2014-Nov-16 14:33N 33°05' W 117°52'2 2.5
2014-Nov-16 13:33N 33°04' W 117°50'0 0.4
2014-Nov-16 12:33N 33°03' W 117°50'0 0.5
2014-Nov-16 11:33N 33°03' W 117°50'1 1.0
2014-Nov-16 10:33N 33°02' W 117°49'0 0.3
2014-Nov-16 09:33N 33°02' W 117°49'  
Track history (hours):
 
Tides and Currents Weather Stations Pressure Air Temp Water Temp Dewpoint Dewpoint Depression Visibility Wind Speed Wind Dir Waves Ship Positions

Piper Inness

Owner: Foss Maritime Co, Seattle, WA. More information available from US FCC via Universal Licensing System and Coast Guard Vessel Documentation Center.

Last reported at 2014-Nov-26 09:30 UTC. Time now 2014-Nov-26 10:03 UTC.
Position N 33°46' W 118°13'.

; draft 2 m.

Type: Other ship. MMSI: 367017440.

Date/timePositionNaut miles runAvg speedWind from/ knotsBaromVisibWave heightAir tempDewpointWater temp
2014-Nov-26 09:30N 33°46' W 118°13'0 0.0
2014-Nov-26 08:33N 33°46' W 118°13'0 0.0
2014-Nov-26 07:31N 33°46' W 118°13'0 0.0
2014-Nov-26 06:30N 33°46' W 118°13'0 0.0
2014-Nov-26 05:33N 33°46' W 118°13'0 0.0
2014-Nov-26 04:33N 33°46' W 118°13'0 0.0
2014-Nov-26 03:22N 33°46' W 118°13'0 0.0
2014-Nov-26 02:33N 33°46' W 118°13'0 0.0
2014-Nov-26 01:33N 33°46' W 118°13'0 0.0
2014-Nov-26 00:33N 33°46' W 118°13'0 0.0
2014-Nov-25 23:33N 33°46' W 118°13'0 0.0
2014-Nov-25 22:33N 33°46' W 118°13'0 0.0
2014-Nov-25 21:33N 33°46' W 118°13'0 0.0
2014-Nov-25 20:33N 33°46' W 118°13'0 0.0
2014-Nov-25 19:33N 33°46' W 118°13'0 0.0
2014-Nov-25 18:33N 33°46' W 118°13'0 0.0
2014-Nov-25 17:33N 33°46' W 118°13'0 0.0
2014-Nov-25 16:33N 33°46' W 118°13'0 0.0
2014-Nov-25 15:33N 33°46' W 118°13'0 0.0
2014-Nov-25 14:33N 33°46' W 118°13'0 0.0
2014-Nov-25 13:33N 33°46' W 118°13'0 0.0
2014-Nov-25 12:33N 33°46' W 118°13'0 0.0
2014-Nov-25 11:33N 33°46' W 118°13'0 0.0
2014-Nov-25 10:33N 33°46' W 118°13'0 0.0
2014-Nov-25 09:33N 33°46' W 118°13'0 0.0
2014-Nov-25 08:33N 33°46' W 118°13'0 0.0
2014-Nov-25 07:33N 33°46' W 118°13'0 0.0
2014-Nov-25 06:33N 33°46' W 118°13'0 0.0
2014-Nov-25 05:33N 33°46' W 118°13'0 0.0
2014-Nov-25 04:33N 33°46' W 118°13'0 0.0
2014-Nov-25 03:33N 33°46' W 118°13'0 0.0
2014-Nov-25 02:33N 33°46' W 118°13'0 0.0
2014-Nov-25 01:33N 33°46' W 118°13'0 0.0
2014-Nov-25 00:33N 33°46' W 118°13'0 0.0
2014-Nov-24 23:33N 33°46' W 118°13'0 0.0
2014-Nov-24 22:33N 33°46' W 118°13'0 0.0
2014-Nov-24 21:33N 33°46' W 118°13'0 0.0
2014-Nov-24 20:33N 33°46' W 118°13'0 0.0
2014-Nov-24 19:33N 33°46' W 118°13'0 0.0
2014-Nov-24 18:33N 33°46' W 118°13'0 0.0
2014-Nov-24 17:33N 33°46' W 118°13'0 0.0
2014-Nov-24 16:33N 33°46' W 118°13'0 0.0
2014-Nov-24 15:30N 33°46' W 118°13'0 0.0
2014-Nov-24 14:33N 33°46' W 118°13'0 0.0
2014-Nov-24 13:32N 33°46' W 118°13'0 0.0
2014-Nov-24 12:33N 33°46' W 118°13'0 0.0
2014-Nov-24 11:32N 33°46' W 118°13'0 0.0
2014-Nov-24 10:33N 33°46' W 118°13'0 0.0
2014-Nov-24 09:29N 33°46' W 118°13'0 0.0
2014-Nov-24 08:33N 33°46' W 118°13'0 0.0
2014-Nov-24 07:33N 33°46' W 118°13'0 0.0
2014-Nov-24 06:33N 33°46' W 118°13'0 0.0
2014-Nov-24 05:33N 33°46' W 118°13'0 0.0
2014-Nov-24 04:33N 33°46' W 118°13'0 0.0
2014-Nov-24 03:33N 33°46' W 118°13'2311.3
2014-Nov-24 01:33N 33°25' W 118°02'1817.8
2014-Nov-24 00:33N 33°10' W 117°52'4 3.7
2014-Nov-23 23:33N 33°06' W 117°51'0 0.3
2014-Nov-23 22:33N 33°06' W 117°51'3 2.6
2014-Nov-23 21:34N 33°04' W 117°49'1 0.8
2014-Nov-23 20:33N 33°03' W 117°49'3 2.9
2014-Nov-23 19:33N 33°01' W 117°46'1 0.6
2014-Nov-23 18:33N 33°01' W 117°46'2 2.4
2014-Nov-23 17:33N 32°60' W 117°43'3 2.8
2014-Nov-23 16:33N 33°00' W 117°47'2 2.2
2014-Nov-23 15:34N 33°00' W 117°44'3 2.9
2014-Nov-23 14:33N 33°01' W 117°47'0 0.3
2014-Nov-23 13:33N 33°01' W 117°47'1 0.9
2014-Nov-23 12:33N 33°00' W 117°46'1 1.4
2014-Nov-23 11:33N 33°00' W 117°48'0 0.5
2014-Nov-23 10:33N 33°01' W 117°48'2 2.0
2014-Nov-23 09:33N 33°01' W 117°50'2 2.0
2014-Nov-23 08:33N 33°01' W 117°48'2 1.6
2014-Nov-23 07:33N 33°01' W 117°50'1 0.8
2014-Nov-23 06:33N 33°01' W 117°49'5 5.0
2014-Nov-23 05:33N 33°05' W 117°53'4 4.0
2014-Nov-23 04:33N 33°08' W 117°55'4 4.0
2014-Nov-23 03:33N 33°11' W 117°59'9 8.9
2014-Nov-23 02:33N 33°20' W 118°01'1717.2
2014-Nov-23 01:34N 33°36' W 118°07'1111.0
2014-Nov-23 00:33N 33°46' W 118°13'1 0.6
2014-Nov-22 23:33N 33°46' W 118°13'0 0.0
2014-Nov-22 22:33N 33°46' W 118°13'0 0.0
2014-Nov-22 21:16N 33°46' W 118°13'0 0.0
2014-Nov-22 20:33N 33°46' W 118°13'0 0.0
2014-Nov-22 19:33N 33°46' W 118°13'0 0.0
2014-Nov-22 18:33N 33°46' W 118°13'0 0.0
2014-Nov-22 17:33N 33°46' W 118°13'0 0.0
2014-Nov-22 16:33N 33°46' W 118°13'0 0.0
2014-Nov-22 15:33N 33°46' W 118°13'0 0.0
2014-Nov-22 14:33N 33°46' W 118°13'3 2.4
2014-Nov-22 13:30N 33°44' W 118°12'3317.0
2014-Nov-22 11:34N 33°14' W 117°56'9 8.5
2014-Nov-22 10:33N 33°06' W 117°51'2 1.5
2014-Nov-22 09:33N 33°05' W 117°53'1 0.9
2014-Nov-22 08:33N 33°04' W 117°52'1 1.3
2014-Nov-22 07:33N 33°03' W 117°51'2 2.0
2014-Nov-22 06:34N 33°03' W 117°49'2 1.7
2014-Nov-22 05:34N 33°01' W 117°51'3 2.9
2014-Nov-22 04:34N 33°00' W 117°48'3 2.8
2014-Nov-22 03:34N 33°00' W 117°51'1 1.4
2014-Nov-22 02:34N 32°59' W 117°50'4 3.6
2014-Nov-22 01:33N 32°58' W 117°46'2 1.7
2014-Nov-22 00:33N 32°57' W 117°44'1 0.6
2014-Nov-21 23:34N 32°57' W 117°43'1 0.9
2014-Nov-21 22:34N 32°57' W 117°44'1 1.3
2014-Nov-21 21:34N 32°58' W 117°45'1 0.6
2014-Nov-21 20:34N 32°58' W 117°46'2 2.1
2014-Nov-21 19:33N 32°58' W 117°44'2 2.3
2014-Nov-21 18:33N 32°59' W 117°46'4 3.6
2014-Nov-21 17:33N 33°01' W 117°49'5 5.0
2014-Nov-21 16:33N 33°05' W 117°53'5 4.5
2014-Nov-21 15:34N 33°08' W 117°56'4 3.6
2014-Nov-21 14:33N 33°11' W 117°60'4 4.1
2014-Nov-21 13:33N 33°09' W 117°55'7 6.9
2014-Nov-21 12:33N 33°16' W 117°58'3215.8
2014-Nov-21 10:33N 33°45' W 118°13'1 1.4
2014-Nov-21 09:33N 33°46' W 118°13'0 0.0
2014-Nov-21 08:33N 33°46' W 118°13'0 0.0
2014-Nov-21 07:34N 33°46' W 118°13'0 0.0
2014-Nov-21 06:33N 33°46' W 118°13'0 0.0
2014-Nov-21 05:33N 33°46' W 118°13'0 0.0
2014-Nov-21 04:33N 33°46' W 118°13'0 0.0
2014-Nov-21 03:33N 33°46' W 118°13'0 0.0
2014-Nov-21 02:33N 33°46' W 118°13'0 0.0
2014-Nov-21 01:33N 33°46' W 118°13'0 0.0
2014-Nov-21 00:33N 33°46' W 118°13'0 0.0
2014-Nov-20 23:33N 33°46' W 118°13'0 0.0
2014-Nov-20 22:33N 33°46' W 118°13'0 0.0
2014-Nov-20 21:33N 33°46' W 118°13'0 0.0
2014-Nov-20 20:33N 33°46' W 118°13'0 0.0
2014-Nov-20 19:33N 33°46' W 118°13'0 0.0
2014-Nov-20 18:33N 33°46' W 118°13'0 0.0
2014-Nov-20 17:33N 33°46' W 118°13'0 0.0
2014-Nov-20 16:33N 33°46' W 118°13'0 0.0
2014-Nov-20 15:33N 33°46' W 118°13'0 0.0
2014-Nov-20 14:33N 33°46' W 118°13'0 0.0
2014-Nov-20 13:33N 33°46' W 118°13'0 0.0
2014-Nov-20 12:33N 33°46' W 118°13'0 0.0
2014-Nov-20 11:33N 33°46' W 118°13'0 0.0
2014-Nov-20 10:33N 33°46' W 118°13'0 0.0
2014-Nov-20 09:33N 33°46' W 118°13'0 0.0
2014-Nov-20 08:33N 33°46' W 118°13'0 0.0
2014-Nov-20 07:33N 33°46' W 118°13'0 0.0
2014-Nov-20 06:33N 33°46' W 118°13'0 0.0
2014-Nov-20 05:33N 33°46' W 118°13'0 0.0
2014-Nov-20 04:33N 33°46' W 118°13'0 0.0
2014-Nov-20 03:33N 33°46' W 118°13'0 0.0
2014-Nov-20 02:33N 33°46' W 118°13'0 0.0
2014-Nov-20 01:33N 33°46' W 118°13'0 0.0
2014-Nov-20 00:33N 33°46' W 118°13'0 0.0
2014-Nov-19 23:33N 33°46' W 118°13'0 0.0
2014-Nov-19 22:33N 33°46' W 118°13'0 0.0
2014-Nov-19 21:33N 33°46' W 118°13'0 0.0
2014-Nov-19 20:33N 33°46' W 118°13'0 0.0
2014-Nov-19 19:33N 33°46' W 118°13'0 0.0
2014-Nov-19 18:33N 33°46' W 118°13'1 0.7
2014-Nov-19 17:33N 33°46' W 118°13'1 0.7
2014-Nov-19 16:33N 33°46' W 118°13'0 0.0
2014-Nov-19 15:33N 33°46' W 118°13'0 0.0
2014-Nov-19 14:33N 33°46' W 118°13'0 0.0
2014-Nov-19 13:32N 33°46' W 118°13'0 0.0
2014-Nov-19 12:29N 33°46' W 118°13'0 0.0
2014-Nov-19 11:33N 33°46' W 118°13'0 0.0
2014-Nov-19 10:33N 33°46' W 118°13'0 0.0
2014-Nov-19 09:33N 33°46' W 118°13'0 0.5
2014-Nov-19 08:33N 33°46' W 118°13'1413.9
2014-Nov-19 07:33N 33°34' W 118°05'1717.5
2014-Nov-19 06:33N 33°19' W 117°55'7 7.3
2014-Nov-19 05:33N 33°12' W 117°51'6 5.8
2014-Nov-19 04:33N 33°06' W 117°51'1 0.7
2014-Nov-19 03:34N 33°06' W 117°50'3 3.0
2014-Nov-19 02:34N 33°03' W 117°50'1 0.8
2014-Nov-19 01:34N 33°02' W 117°50'3 3.0
2014-Nov-19 00:34N 32°60' W 117°48'0 0.2
2014-Nov-18 23:34N 32°60' W 117°48'3 3.2
2014-Nov-18 22:33N 32°58' W 117°45'3 2.6
2014-Nov-18 21:34N 32°57' W 117°42'1 1.0
2014-Nov-18 20:33N 32°57' W 117°43'2 2.2
2014-Nov-18 19:34N 32°56' W 117°46'1 0.9
2014-Nov-18 18:33N 32°57' W 117°46'1 1.4
2014-Nov-18 17:34N 32°58' W 117°48'0 0.3
2014-Nov-18 16:34N 32°58' W 117°48'0 0.3
2014-Nov-18 15:33N 32°57' W 117°47'0 0.4
2014-Nov-18 14:33N 32°58' W 117°48'0 0.2
2014-Nov-18 13:34N 32°58' W 117°48'0 0.3
2014-Nov-18 12:33N 32°58' W 117°48'1 0.7
2014-Nov-18 11:33N 32°58' W 117°48'4 3.7
2014-Nov-18 10:34N 33°01' W 117°51'4 3.9
2014-Nov-18 09:33N 33°04' W 117°53'4 3.8
2014-Nov-18 08:33N 33°08' W 117°56'4 4.4
2014-Nov-18 07:34N 33°11' W 117°59'1716.9
2014-Nov-18 06:33N 33°28' W 118°03'1717.1
2014-Nov-18 05:33N 33°44' W 118°11'3 3.0
2014-Nov-18 04:33N 33°46' W 118°13'0 0.0
2014-Nov-18 03:31N 33°46' W 118°13'0 0.0
2014-Nov-18 02:32N 33°46' W 118°13'0 0.0
2014-Nov-18 01:20N 33°46' W 118°13'0 0.0
2014-Nov-17 20:12N 33°46' W 118°13'4 6.2
2014-Nov-17 19:33N 33°43' W 118°16'9 0.4
2014-Nov-16 19:28N 33°37' W 118°08'1817.8
2014-Nov-16 18:27N 33°20' W 117°59'1516.8
2014-Nov-16 17:33N 33°07' W 117°52'1 0.8
2014-Nov-16 16:32N 33°06' W 117°52'1 1.1
2014-Nov-16 15:33N 33°05' W 117°53'1 0.5
2014-Nov-16 14:33N 33°05' W 117°52'2 2.5
2014-Nov-16 13:33N 33°04' W 117°50'0 0.4
2014-Nov-16 12:33N 33°03' W 117°50'0 0.5
2014-Nov-16 11:33N 33°03' W 117°50'1 1.0
2014-Nov-16 10:33N 33°02' W 117°49'0 0.3
2014-Nov-16 09:33N 33°02' W 117°49'  

Dump ship's entire track history